Flugplatz Kehl-Sundheim (EDSK)

Hier findest Du alle Informationen zum Flugplatz Kehl-Sundheim (EDSK).

Informationen für Piloten zum Flugplatz Kehl-Sundheim

Hier findest Du alle relevanten Informationen, die Du als Pilot benötigst, um Kehl-Sundheim anzufliegen.

Flugplatz: Kehl-Sundheim ICAO-Code: EDSK
Frequenz Turm: 122,750 Mhz GAFOR Gebiet: 51
Frequenz Ground: 122,750 Mhz Mogas: ja
Platzrunde: SE 1300 ft Landegebühr: -
Platzhöhe: - Sunrise: 07:07 Uhr UTC
Pisten: 03/21 - 475 m x 30 m, GRAS Sunset: 16:13 Uhr UTC

Flugwetter am Flugplatz Kehl-Sundheim

Die METAR Information stammen aus EDTL (21.12 km entfernt).

METAR Code:
2017/01/22 14:20
EDTL 221420Z 32003KT 1500 BR OVC004 M05/M05 Q1025

Flugschulen am Flugplatz Kehl-Sundheim

Am Flugplatz Kehl-Sundheim gibt es 2 Flugschulen.

Benachbarte Flugplätze und Flugschulen

Es gibt 6 weitere Flugplätze in einem Umkreis von 50 km um den Flugplatz Kehl-Sundheim.

Jetzt anmelden

Passwort vergessen

Umfrage Archiv

In welcher Höhe sollte das max. Leergewicht begrenzt werden, wenn ULs 600 kg MTOW hätten?

max. 350,0 kg
49.9 %
keine Begrenzung
13.6 %
max. 375,0 kg
12.7 %
max. 325,0 kg
10.5 %
max. 400,0 kg
8.1 %
max. 300,0 kg
3.3 %
max. 275,0 kg
2 %
Stimmen: 553 | Diskussion (46)
Anzeige: Roland Aircraft
Statistik Alle Mitglieder

Aktuell sind 46 Besucher online, davon 4 Mitglieder und 42 Gäste.


Mitglieder online:
DL5HAI  oli.grob  stefanf79  Manni 

Anzeige: VFR Sprechfunk Simulator


Anzeige: Pocket FMS